Time;durP1;ratioP1;P1;durP2;ratioP2;P2;SDS_P1;SDS_P2;PMS_P1;PMS_P2;Temp;Humidity;BMP_temperature;BMP_pressure;BME280_temperature;BME280_humidity;BME280_pressure;Samples;Min_cycle;Max_cycle;Signal;HPM_P1;HPM_P2
2023/01/27 00:00:33;;;;;;;17.92;7.90;;;;;;;;;;5013108;28;20082;-67
2023/01/27 00:02:59;;;;;;;21.90;9.38;;;;;;;;;;5013112;28;20050;-66
2023/01/27 00:05:25;;;;;;;18.88;8.18;;;;;;;;;;5012546;28;20501;-66
2023/01/27 00:07:51;;;;;;;15.98;7.00;;;;;;;;;;5012989;28;20058;-66
2023/01/27 00:10:18;;;;;;;18.67;6.43;;;;;;;;;;5012898;28;20061;-67
2023/01/27 00:15:31;;;;;;;21.92;8.10;;;;;;;;;;5012936;28;20129;-67
2023/01/27 00:17:57;;;;;;;17.38;6.70;;;;;;;;;;5012878;28;20053;-68
2023/01/27 00:26:07;;;;;;;15.70;7.78;;;;;;;;;;5012421;28;20510;-66
2023/01/27 00:28:34;;;;;;;18.08;7.38;;;;;;;;;;5012619;28;20045;-69
2023/01/27 00:31:00;;;;;;;24.60;9.30;;;;;;;;;;5012540;28;20045;-67
2023/01/27 00:33:26;;;;;;;18.98;8.32;;;;;;;;;;5012287;28;20533;-67
2023/01/27 00:36:06;;;;;;;18.10;7.75;;;;;;;;;;5012600;28;20141;-67
2023/01/27 00:38:33;;;;;;;22.08;7.90;;;;;;;;;;5012559;28;20049;-67
2023/01/27 00:41:18;;;;;;;24.27;7.50;;;;;;;;;;5012462;28;20045;-66
2023/01/27 00:43:48;;;;;;;19.17;7.63;;;;;;;;;;5012425;28;20054;-67
2023/01/27 00:46:14;;;;;;;15.30;7.75;;;;;;;;;;5012399;28;20065;-67
2023/01/27 00:48:40;;;;;;;18.35;6.43;;;;;;;;;;5012413;28;20138;-66
2023/01/27 00:51:06;;;;;;;19.75;6.97;;;4.50;99.90;;;;;;5012350;28;20053;-67
2023/01/27 00:53:32;;;;;;;17.25;6.38;;;;;;;;;;5012297;28;20054;-68
2023/01/27 00:55:58;;;;;;;;;;;4.70;99.90;;;;;;5012743;28;20387;-67
2023/01/27 00:58:27;;;;;;;20.35;6.40;;;;;;;;;;5012345;28;19928;-67
2023/01/27 01:00:54;;;;;;;14.88;6.35;;;;;;;;;;5012159;28;20497;-67
2023/01/27 01:03:20;;;;;;;17.70;5.50;;;;;;;;;;5012268;28;20045;-66
2023/01/27 01:05:47;;;;;;;21.23;5.40;;;;;;;;;;5011937;28;20503;-67
2023/01/27 01:08:13;;;;;;;16.33;4.72;;;;;;;;;;5012186;28;20054;-67
2023/01/27 01:10:39;;;;;;;19.20;5.40;;;;;;;;;;5012061;28;20482;-68
2023/01/27 01:13:10;;;;;;;15.23;5.13;;;;;;;;;;5012180;28;20379;-66
2023/01/27 01:15:40;;;;;;;17.00;4.75;;;;;;;;;;5012262;28;20054;-66
2023/01/27 01:18:07;;;;;;;13.90;4.57;;;4.50;99.90;;;;;;5011861;28;20645;-66
2023/01/27 01:20:37;;;;;;;10.70;4.65;;;;;;;;;;5012157;28;20050;-66
2023/01/27 01:23:04;;;;;;;9.40;4.00;;;;;;;;;;5012219;28;20045;-66
2023/01/27 01:25:30;;;;;;;13.63;3.75;;;;;;;;;;5012356;28;20054;-67
2023/01/27 01:27:56;;;;;;;17.45;4.50;;;;;;;;;;5012151;28;20088;-66
2023/01/27 01:30:25;;;;;;;15.25;3.88;;;;;;;;;;5012013;28;20050;-67
2023/01/27 01:32:51;;;;;;;12.05;3.40;;;;;;;;;;5012032;28;20478;-66
2023/01/27 01:35:18;;;;;;;9.88;3.60;;;;;;;;;;5013871;28;20093;-68
2023/01/27 01:37:44;;;;;;;16.08;3.88;;;;;;;;;;5015474;28;20516;-66
2023/01/27 01:40:13;;;;;;;11.52;3.78;;;;;;;;;;5015731;28;20046;-67
2023/01/27 01:42:59;;;;;;;12.45;2.95;;;;;;;;;;5015714;28;20104;-67
2023/01/27 01:45:30;;;;;;;11.57;3.08;;;4.80;99.90;;;;;;5015455;28;20526;-67
2023/01/27 01:48:00;;;;;;;14.35;3.25;;;;;;;;;;5015607;28;20046;-66
2023/01/27 01:50:26;;;;;;;11.27;3.15;;;;;;;;;;5015458;28;20078;-67
2023/01/27 01:52:53;;;;;;;14.02;3.30;;;;;;;;;;5015496;28;20081;-66
2023/01/27 01:55:19;;;;;;;15.27;2.92;;;;;;;;;;4998159;28;20076;-66
2023/01/27 01:57:45;;;;;;;17.15;4.47;;;;;;;;;;5015360;28;20049;-67
2023/01/27 02:00:11;;;;;;;7.95;2.30;;;;;;;;;;5015324;28;20046;-67
2023/01/27 02:02:37;;;;;;;;;;;;;;;;;;4998193;28;20748;-67
2023/01/27 02:05:05;;;;;;;12.35;1.92;;;;;;;;;;5014793;28;19926;-67
2023/01/27 02:07:44;;;;;;;6.43;1.92;;;;;;;;;;5015318;28;20117;-67
2023/01/27 02:10:11;;;;;;;10.50;1.83;;;;;;;;;;4981548;28;20053;-67
2023/01/27 02:12:37;;;;;;;5.43;1.60;;;;;;;;;;5015157;28;20567;-66
2023/01/27 02:15:06;;;;;;;6.57;1.60;;;;;;;;;;5015090;28;20049;-70
2023/01/27 02:17:32;;;;;;;4.07;1.60;;;;;;;;;;5015008;28;20054;-67
2023/01/27 02:20:04;;;;;;;8.05;2.25;;;;;;;;;;5014968;28;20057;-68
2023/01/27 02:23:03;;;;;;;4.68;1.75;;;4.60;99.90;;;;;;5014983;28;20054;-68
2023/01/27 02:25:36;;;;;;;7.13;1.73;;;;;;;;;;4997398;28;20092;-67
2023/01/27 02:28:02;;;;;;;4.07;1.98;;;;;;;;;;5014803;28;20086;-68
2023/01/27 02:30:28;;;;;;;;;;;;;;;;;;5015099;28;20516;-68
2023/01/27 02:32:54;;;;;;;6.15;1.80;;;;;;;;;;5014797;28;19921;-67
2023/01/27 02:35:46;;;;;;;13.18;2.10;;;;;;;;;;5014734;28;20081;-67
2023/01/27 02:38:13;;;;;;;5.82;2.00;;;;;;;;;;4991548;28;20057;-68
2023/01/27 02:40:40;;;;;;;8.80;1.88;;;;;;;;;;5014588;28;20042;-67
2023/01/27 02:43:06;;;;;;;;;;;;;;;;;;5014680;28;20522;-67
2023/01/27 02:45:32;;;;;;;3.92;1.70;;;;;;;;;;5014275;28;20016;-67
2023/01/27 02:47:58;;;;;;;7.93;1.70;;;;;;;;;;5013724;28;20061;-67
2023/01/27 02:50:24;;;;;;;7.82;1.88;;;;;;;;;;5014348;28;20085;-67
2023/01/27 02:52:50;;;;;;;9.45;2.05;;;;;;;;;;5014445;28;20046;-67
2023/01/27 02:55:16;;;;;;;2.67;1.67;;;;;;;;;;4996515;28;20450;-67
2023/01/27 02:57:42;;;;;;;7.18;1.88;;;;;;;;;;4997039;28;20438;-67
2023/01/27 03:00:12;;;;;;;3.85;1.50;;;;;;;;;;5014234;28;20057;-68
2023/01/27 03:02:38;;;;;;;5.15;1.50;;;;;;;;;;5014227;28;20056;-67
2023/01/27 03:05:04;;;;;;;4.32;1.80;;;;;;;;;;5013988;28;20057;-69
2023/01/27 03:07:30;;;;;;;4.80;1.38;;;;;;;;;;5014248;28;20064;-66
2023/01/27 03:09:56;;;;;;;4.45;2.15;;;;;;;;;;4996374;28;20042;-67
2023/01/27 03:12:23;;;;;;;5.65;1.80;;;;;;;;;;5014059;28;20086;-67
2023/01/27 03:20:20;;;;;;;5.65;1.80;;;;;;;;;;4996780;28;20054;-68
2023/01/27 03:22:47;;;;;;;8.35;2.10;;;;;;;;;;5013892;28;20054;-67
2023/01/27 03:25:13;;;;;;;7.32;1.70;;;;;;;;;;5013797;28;20053;-66
2023/01/27 03:27:39;;;;;;;5.00;1.52;;;;;;;;;;5013805;28;20049;-67
2023/01/27 03:30:05;;;;;;;;;;;4.10;99.90;;;;;;5013993;28;20096;-67
2023/01/27 03:32:31;;;;;;;7.90;2.10;;;;;;;;;;5013745;28;19921;-67
2023/01/27 03:34:59;;;;;;;6.68;1.95;;;;;;;;;;5013626;28;20045;-67
2023/01/27 03:48:28;;;;;;;3.75;2.05;;;;;;;;;;5013403;28;20054;-66
2023/01/27 03:51:04;;;;;;;8.48;2.70;;;;;;;;;;5013310;28;20046;-66
2023/01/27 03:53:30;;;;;;;5.80;2.40;;;;;;;;;;5013361;28;20085;-67
2023/01/27 03:55:56;;;;;;;6.57;2.67;;;;;;;;;;5013269;28;20111;-67
2023/01/27 03:58:24;;;;;;;3.90;2.72;;;;;;;;;;5013011;28;20050;-67
2023/01/27 04:00:53;;;;;;;4.93;2.83;;;4.20;99.90;;;;;;5013096;28;20088;-67
2023/01/27 04:08:58;;;;;;;7.32;3.40;;;;;;;;;;5013093;28;20054;-67
2023/01/27 04:14:09;;;;;;;10.40;3.30;;;;;;;;;;5012862;28;20011;-66
2023/01/27 04:16:38;;;;;;;;;;;;;;;;;;5013318;28;20058;-67
2023/01/27 04:19:06;;;;;;;4.93;2.60;;;3.50;99.90;;;;;;5012804;28;20374;-67
2023/01/27 04:21:32;;;;;;;6.85;2.70;;;;;;;;;;4995397;28;20062;-66
2023/01/27 04:23:58;;;;;;;;;;;4.00;99.90;;;;;;5013136;28;20050;-66
2023/01/27 04:26:24;;;;;;;3.53;2.40;;;;;;;;;;5012768;28;19921;-66
2023/01/27 04:28:50;;;;;;;7.70;2.67;;;;;;;;;;5012753;28;20054;-67
2023/01/27 04:31:17;;;;;;;6.65;2.75;;;;;;;;;;5012545;28;20046;-67
2023/01/27 04:33:44;;;;;;;4.43;2.80;;;;;;;;;;5012397;28;20536;-67
2023/01/27 04:36:13;;;;;;;5.43;2.40;;;;;;;;;;5012559;28;20187;-68
2023/01/27 04:38:39;;;;;;;5.53;2.28;;;;;;;;;;4995187;28;20101;-67
2023/01/27 04:41:05;;;;;;;7.07;2.10;;;;;;;;;;5012534;28;20054;-68
2023/01/27 04:43:31;;;;;;;7.28;2.15;;;;;;;;;;5012498;28;20049;-67
2023/01/27 04:45:57;;;;;;;4.15;2.00;;;;;;;;;;5012435;28;20056;-66
2023/01/27 04:48:23;;;;;;;5.95;2.20;;;;;;;;;;5012402;28;20050;-67
2023/01/27 04:50:49;;;;;;;4.80;1.80;;;;;;;;;;5012314;28;20050;-68
2023/01/27 04:53:15;;;;;;;5.93;2.05;;;;;;;;;;5012287;28;20053;-67
2023/01/27 04:55:44;;;;;;;6.53;2.40;;;;;;;;;;5012341;28;20056;-67
2023/01/27 04:58:12;;;;;;;8.55;2.38;;;;;;;;;;5012309;28;20072;-67
2023/01/27 05:00:38;;;;;;;5.70;1.70;;;;;;;;;;5012244;28;20147;-66
2023/01/27 05:03:05;;;;;;;8.00;2.55;;;;;;;;;;4994863;28;20042;-66
2023/01/27 05:05:31;;;;;;;8.77;2.05;;;;;;;;;;5012127;28;20062;-68
2023/01/27 05:08:07;;;;;;;4.07;1.98;;;;;;;;;;5012300;28;20077;-66
2023/01/27 05:10:33;;;;;;;9.25;2.25;;;;;;;;;;5014792;28;20065;-66
2023/01/27 05:13:00;;;;;;;7.45;2.35;;;;;;;;;;5016573;28;20053;-66
2023/01/27 05:15:27;;;;;;;10.27;2.05;;;;;;;;;;5016412;28;20056;-67
2023/01/27 05:17:53;;;;;;;;;;;3.80;99.90;;;;;;5016667;28;20088;-66
2023/01/27 05:20:19;;;;;;;10.98;2.10;;;;;;;;;;4998888;28;19976;-67
2023/01/27 05:22:45;;;;;;;4.85;1.50;;;;;;;;;;5016157;28;20128;-66
2023/01/27 05:25:11;;;;;;;4.53;1.75;;;;;;;;;;5015764;28;20471;-68
2023/01/27 05:27:37;;;;;;;10.18;1.92;;;;;;;;;;5015992;28;20045;-67
2023/01/27 05:30:03;;;;;;;6.85;1.60;;;4.10;99.90;;;;;;5015911;28;20089;-66
2023/01/27 05:32:29;;;;;;;2.45;1.48;;;;;;;;;;5015852;28;20099;-67
2023/01/27 05:34:55;;;;;;;3.75;1.52;;;;;;;;;;5015845;28;20085;-69
2023/01/27 05:37:21;;;;;;;4.88;1.60;;;;;;;;;;5015845;28;20419;-67
2023/01/27 05:39:47;;;;;;;3.22;1.35;;;;;;;;;;5015807;28;20132;-67
2023/01/27 05:42:13;;;;;;;4.70;1.55;;;;;;;;;;5015733;28;20045;-67
2023/01/27 05:44:39;;;;;;;2.33;1.45;;;;;;;;;;5015712;28;20073;-67
2023/01/27 05:47:05;;;;;;;5.05;1.83;;;;;;;;;;5015715;28;20079;-67
2023/01/27 05:49:32;;;;;;;6.32;1.65;;;;;;;;;;5015688;28;20056;-67
2023/01/27 05:51:57;;;;;;;;;;;3.90;99.90;;;;;;5015985;28;20073;-67
2023/01/27 05:54:23;;;;;;;2.92;1.58;;;;;;;;;;4998065;28;19922;-67
2023/01/27 05:56:49;;;;;;;7.53;1.55;;;;;;;;;;4998183;28;20054;-66
2023/01/27 05:59:16;;;;;;;5.22;1.70;;;;;;;;;;5015458;28;20128;-67
2023/01/27 06:01:42;;;;;;;6.07;2.15;;;;;;;;;;4998009;28;20133;-67
2023/01/27 06:04:09;;;;;;;6.13;1.30;;;;;;;;;;5015293;28;20058;-67
2023/01/27 06:06:35;;;;;;;3.53;1.50;;;;;;;;;;5015233;28;20065;-67
2023/01/27 06:09:01;;;;;;;4.53;1.55;;;;;;;;;;5015288;28;20128;-69
2023/01/27 06:11:27;;;;;;;3.63;2.00;;;;;;;;;;4997599;28;20042;-67
2023/01/27 06:13:54;;;;;;;3.75;1.38;;;;;;;;;;5015205;28;20085;-67
2023/01/27 06:16:20;;;;;;;3.72;1.70;;;;;;;;;;5014816;28;20533;-67
2023/01/27 06:18:47;;;;;;;3.97;1.40;;;;;;;;;;5015037;28;20089;-67
2023/01/27 06:21:14;;;;;;;2.70;1.60;;;;;;;;;;5014946;28;20085;-67
2023/01/27 06:23:40;;;;;;;2.83;1.52;;;;;;;;;;5014955;28;20046;-67
2023/01/27 06:26:09;;;;;;;2.85;1.50;;;3.80;99.90;;;;;;5014874;28;20119;-67
2023/01/27 06:28:35;;;;;;;4.50;1.67;;;;;;;;;;5014861;28;20092;-67
2023/01/27 06:31:11;;;;;;;5.93;1.50;;;;;;;;;;5014728;28;20046;-67
2023/01/27 06:33:37;;;;;;;4.53;1.80;;;;;;;;;;5014490;28;20389;-68
2023/01/27 06:36:04;;;;;;;4.57;1.50;;;;;;;;;;5014487;28;20490;-67
2023/01/27 06:38:30;;;;;;;6.78;1.65;;;;;;;;;;5014629;28;20056;-69
2023/01/27 06:40:56;;;;;;;6.20;2.20;;;;;;;;;;5014696;28;20689;-66
2023/01/27 06:43:22;;;;;;;3.72;1.45;;;;;;;;;;4981006;28;20125;-67
2023/01/27 06:45:49;;;;;;;8.38;1.50;;;;;;;;;;4997146;28;20560;-67
2023/01/27 06:48:15;;;;;;;3.80;1.90;;;;;;;;;;5014498;28;20128;-67
2023/01/27 06:50:41;;;;;;;5.57;2.00;;;;;;;;;;5014406;28;20045;-67
2023/01/27 06:53:07;;;;;;;5.18;1.60;;;;;;;;;;5014440;28;20057;-67
2023/01/27 06:55:34;;;;;;;;;;;4.00;99.90;;;;;;5014811;28;20053;-68
2023/01/27 06:58:01;;;;;;;5.10;2.00;;;;;;;;;;5014408;28;20408;-66
2023/01/27 07:00:27;;;;;;;3.75;1.63;;;;;;;;;;5014285;28;20296;-67
2023/01/27 07:02:57;;;;;;;10.02;1.60;;;;;;;;;;5014262;28;20081;-66
2023/01/27 07:05:23;;;;;;;10.57;1.70;;;;;;;;;;5014042;28;20052;-66
2023/01/27 07:07:49;;;;;;;5.38;1.55;;;;;;;;;;5014452;28;20060;-66
2023/01/27 07:10:15;;;;;;;5.78;1.50;;;;;;;;;;5014283;28;20045;-66
2023/01/27 07:12:41;;;;;;;4.80;1.40;;;;;;;;;;5014113;28;20438;-66
2023/01/27 07:15:08;;;;;;;6.82;1.52;;;;;;;;;;5014092;28;20498;-67
2023/01/27 07:17:34;;;;;;;2.42;1.50;;;;;;;;;;5013583;28;20513;-66
2023/01/27 07:20:00;;;;;;;;;;;3.90;99.90;;;;;;5014061;28;20049;-66
2023/01/27 07:22:26;;;;;;;2.95;1.20;;;;;;;;;;5013883;28;19928;-67
2023/01/27 07:24:54;;;;;;;;;;;;;;;;;;5014266;28;20050;-67
2023/01/27 07:27:21;;;;;;;2.95;1.20;;;;;;;;;;5013750;28;19921;-66
2023/01/27 07:29:47;;;;;;;6.40;1.23;;;;;;;;;;4996063;28;20049;-67
2023/01/27 07:32:13;;;;;;;2.92;1.20;;;;;;;;;;5013263;28;20596;-68
2023/01/27 07:34:39;;;;;;;2.75;1.17;;;;;;;;;;5013599;28;20479;-67
2023/01/27 07:37:05;;;;;;;4.28;1.25;;;;;;;;;;5013667;28;20100;-66
2023/01/27 07:39:32;;;;;;;3.38;1.10;;;;;;;;;;5013556;28;20056;-67
2023/01/27 07:42:00;;;;;;;0.93;0.93;;;;;;;;;;5013252;28;20502;-67
2023/01/27 07:44:26;;;;;;;3.58;1.20;;;;;;;;;;5013288;28;20525;-66
2023/01/27 07:46:52;;;;;;;;;;;;;;;;;;5013817;28;20181;-67
2023/01/27 07:49:18;;;;;;;5.40;1.10;;;;;;;;;;5013412;28;19929;-66
2023/01/27 07:51:45;;;;;;;2.97;1.10;;;;;;;;;;5013315;28;20057;-67
2023/01/27 07:54:11;;;;;;;3.95;1.05;;;;;;;;;;5013397;28;20046;-66
2023/01/27 07:56:37;;;;;;;;;;;;;;;;;;5013678;28;20479;-66
2023/01/27 07:59:03;;;;;;;3.38;1.08;;;;;;;;;;5013140;28;20424;-67
2023/01/27 08:01:30;;;;;;;5.30;1.30;;;;;;;;;;5013188;28;20100;-66
2023/01/27 08:03:56;;;;;;;3.25;1.30;;;;;;;;;;5013096;28;20042;-67
2023/01/27 08:06:22;;;;;;;;;;;;;;;;;;5013518;28;20093;-66
2023/01/27 08:08:48;;;;;;;2.75;0.98;;;;;;;;;;5016565;28;20040;-67
2023/01/27 08:11:14;;;;;;;4.07;1.00;;;;;;;;;;5012239;28;20483;-67
2023/01/27 08:13:40;;;;;;;;;;;;;;;;;;5031004;28;20091;-67
2023/01/27 08:16:07;;;;;;;2.85;1.17;;;;;;;;;;5032279;28;19984;-67
2023/01/27 08:18:34;;;;;;;3.83;1.08;;;;;;;;;;5031678;28;20076;-67
2023/01/27 08:21:00;;;;;;;;;;;4.30;99.90;;;;;;5032434;28;20037;-66
2023/01/27 08:23:27;;;;;;;1.88;1.20;;;;;;;;;;5031236;28;20012;-67
2023/01/27 08:25:54;;;;;;;;;;;4.20;99.90;;;;;;5032515;28;20140;-67
2023/01/27 08:28:21;;;;;;;1.88;0.90;;;;;;;;;;5031986;28;19944;-67
2023/01/27 08:30:50;;;;;;;3.28;1.30;;;;;;;;;;5031989;28;20045;-67
2023/01/27 08:33:17;;;;;;;2.80;1.08;;;;;;;;;;5031718;28;20092;-66
2023/01/27 08:35:43;;;;;;;2.63;1.30;;;;;;;;;;5031751;28;20053;-68
2023/01/27 08:38:10;;;;;;;;;;;4.50;99.90;;;;;;5031814;28;20045;-67
2023/01/27 08:40:38;;;;;;;4.55;1.90;;;;;;;;;;5031877;28;19928;-67
2023/01/27 08:43:04;;;;;;;4.18;1.40;;;;;;;;;;5031668;28;20080;-66
2023/01/27 08:45:30;;;;;;;6.97;1.50;;;;;;;;;;5030975;28;20512;-67
2023/01/27 08:47:56;;;;;;;5.28;1.52;;;;;;;;;;5031687;28;20393;-67
2023/01/27 08:50:22;;;;;;;4.57;1.40;;;;;;;;;;5031640;28;20049;-66
2023/01/27 08:52:48;;;;;;;3.83;1.10;;;;;;;;;;5031454;28;20080;-68
2023/01/27 08:55:14;;;;;;;4.85;1.25;;;;;;;;;;5046904;28;20046;-67
2023/01/27 08:57:41;;;;;;;1.73;1.33;;;;;;;;;;5031270;28;20104;-67
2023/01/27 09:00:10;;;;;;;3.72;1.65;;;;;;;;;;5031669;28;20037;-67
2023/01/27 09:02:36;;;;;;;1.83;0.90;;;;;;;;;;5031652;28;20168;-66
2023/01/27 09:05:03;;;;;;;6.93;1.33;;;;;;;;;;5024816;28;20101;-69
2023/01/27 09:07:29;;;;;;;3.80;1.20;;;;;;;;;;5030568;28;20053;-69
2023/01/27 09:09:55;;;;;;;2.85;1.35;;;;;;;;;;5031612;28;20093;-66
2023/01/27 09:12:21;;;;;;;4.05;1.30;;;;;;;;;;5021904;28;20103;-66
2023/01/27 09:14:47;;;;;;;7.47;1.60;;;;;;;;;;5031501;28;20057;-67
2023/01/27 09:17:18;;;;;;;1.98;1.27;;;;;;;;;;5030602;28;20050;-67
2023/01/27 09:19:44;;;;;;;5.30;1.42;;;;;;;;;;5031172;28;20053;-70
2023/01/27 09:22:10;;;;;;;5.00;1.60;;;;;;;;;;5031353;28;20041;-66
2023/01/27 09:24:36;;;;;;;4.72;1.50;;;;;;;;;;5030993;28;20049;-66
2023/01/27 09:27:02;;;;;;;9.95;1.92;;;;;;;;;;5011738;28;20108;-67
2023/01/27 09:29:29;;;;;;;7.22;2.00;;;;;;;;;;5000869;28;20152;-66
2023/01/27 09:31:56;;;;;;;3.88;1.40;;;;;;;;;;5031380;28;20121;-67
2023/01/27 09:34:22;;;;;;;7.30;2.00;;;;;;;;;;5024773;28;20402;-67
2023/01/27 09:36:53;;;;;;;5.07;1.50;;;4.20;99.90;;;;;;5022137;28;20041;-67
2023/01/27 09:39:20;;;;;;;5.40;1.48;;;;;;;;;;5022169;28;20405;-67
2023/01/27 09:41:52;;;;;;;10.00;2.33;;;;;;;;;;5031238;28;20375;-67
2023/01/27 09:44:27;;;;;;;7.45;1.80;;;;;;;;;;5031427;28;20049;-67
2023/01/27 09:47:01;;;;;;;9.10;1.90;;;;;;;;;;5031248;28;20128;-67
2023/01/27 09:49:36;;;;;;;4.85;1.85;;;;;;;;;;5030952;28;20053;-67
2023/01/27 09:52:11;;;;;;;5.28;1.60;;;;;;;;;;5030945;28;20112;-66
2023/01/27 09:54:43;;;;;;;3.65;1.20;;;;;;;;;;5009951;28;20117;-66
2023/01/27 09:57:15;;;;;;;4.60;1.30;;;;;;;;;;5023474;28;20518;-66
2023/01/27 09:59:44;;;;;;;4.25;1.20;;;;;;;;;;5023877;28;20054;-69
2023/01/27 10:02:16;;;;;;;3.63;1.05;;;4.50;99.90;;;;;;5032005;28;20041;-67
2023/01/27 10:05:19;;;;;;;7.72;1.15;;;4.70;99.90;;;;;;5034563;28;20056;-68
2023/01/27 10:07:57;;;;;;;5.82;1.52;;;;;;;;;;5034620;28;20122;-67
2023/01/27 10:10:30;;;;;;;9.10;1.58;;;;;;;;;;5016896;28;20089;-67
2023/01/27 10:13:07;;;;;;;2.83;1.30;;;;;;;;;;5033288;28;20046;-66
2023/01/27 10:15:33;;;;;;;2.88;1.45;;;;;;;;;;5034409;28;20547;-66
2023/01/27 10:18:11;;;;;;;4.00;1.10;;;;;;;;;;5034206;28;20410;-70
2023/01/27 10:20:37;;;;;;;4.85;1.27;;;;;;;;;;5032631;28;20046;-68
2023/01/27 10:23:28;;;;;;;5.10;1.67;;;4.40;99.90;;;;;;5034230;28;20053;-70
2023/01/27 10:26:14;;;;;;;4.97;1.40;;;4.30;99.90;;;;;;5034192;28;20139;-69
2023/01/27 10:28:46;;;;;;;5.40;1.73;;;;;;;;;;5034233;28;20064;-68
2023/01/27 10:31:20;;;;;;;7.07;1.52;;;;;;;;;;5016506;28;20501;-67
2023/01/27 10:33:51;;;;;;;6.38;1.23;;;;;;;;;;5033792;28;20107;-74
2023/01/27 10:36:28;;;;;;;2.75;1.23;;;;;;;;;;5034116;28;20053;-67
2023/01/27 10:38:54;;;;;;;2.17;1.13;;;;;;;;;;5034157;28;20053;-67
2023/01/27 10:41:23;;;;;;;2.72;1.17;;;;;;;;;;5034131;28;20042;-67
2023/01/27 10:44:16;;;;;;;2.97;1.40;;;4.90;99.90;;;;;;5033576;28;20518;-71
2023/01/27 10:46:48;;;;;;;3.15;1.33;;;;;;;;;;5033980;28;20049;-66
2023/01/27 10:49:25;;;;;;;2.75;1.45;;;4.50;99.90;;;;;;5013793;28;20239;-69
2023/01/27 10:51:51;;;;;;;;;;;;;;;;;;5014509;28;20048;-68
2023/01/27 10:54:43;;;;;;;3.15;1.50;;;4.70;99.90;;;;;;5033938;28;19921;-67
2023/01/27 10:57:38;;;;;;;2.55;1.00;;;5.00;99.90;;;;;;5006640;28;20160;-66
2023/01/27 11:00:05;;;;;;;3.47;1.15;;;;;;;;;;5049374;28;20112;-67
2023/01/27 11:02:40;;;;;;;3.38;1.30;;;;;;;;;;5033676;28;20080;-67
2023/01/27 11:05:15;;;;;;;4.60;1.05;;;;;;;;;;5031101;28;20144;-68
2023/01/27 11:07:46;;;;;;;2.85;1.20;;;;;;;;;;5032539;28;20064;-68
2023/01/27 11:10:17;;;;;;;2.17;1.02;;;;;;;;;;5033610;28;20129;-68
2023/01/27 11:12:46;;;;;;;1.83;1.10;;;;;;;;;;5033351;28;20052;-67
2023/01/27 11:15:41;;;;;;;2.30;1.20;;;5.00;99.90;;;;;;5033595;28;20052;-67
2023/01/27 11:18:11;;;;;;;5.15;1.20;;;;;;;;;;5033233;28;20100;-68
2023/01/27 11:20:41;;;;;;;2.72;1.05;;;5.20;99.90;;;;;;5033012;28;20041;-67
2023/01/27 11:23:27;;;;;;;2.78;1.23;;;;;;;;;;5033133;28;20128;-67
2023/01/27 11:26:16;;;;;;;1.42;0.82;;;;;;;;;;5032995;28;20093;-66
2023/01/27 11:29:01;;;;;;;3.35;1.20;;;4.80;99.90;;;;;;5032469;28;20056;-67
2023/01/27 11:31:28;;;;;;;3.47;1.20;;;;;;;;;;5029507;28;20041;-68
2023/01/27 11:34:06;;;;;;;2.03;1.25;;;;;;;;;;5033112;28;20060;-68
2023/01/27 11:36:33;;;;;;;1.58;1.23;;;;;;;;;;5033199;28;20053;-68
2023/01/27 11:39:05;;;;;;;2.20;1.45;;;;;;;;;;5032845;28;20045;-68
2023/01/27 11:41:36;;;;;;;4.75;1.67;;;;;;;;;;5033165;28;20449;-68
2023/01/27 11:44:07;;;;;;;4.10;1.58;;;4.50;99.90;;;;;;5015569;28;20045;-69
2023/01/27 11:46:34;;;;;;;4.55;1.73;;;;;;;;;;5033038;28;20060;-68
2023/01/27 11:49:01;;;;;;;3.45;1.52;;;;;;;;;;5033019;28;20095;-68
2023/01/27 11:51:31;;;;;;;5.07;1.58;;;;;;;;;;5032797;28;20045;-68
2023/01/27 11:54:11;;;;;;;5.80;1.38;;;4.80;99.90;;;;;;5032935;28;20056;-70
2023/01/27 11:56:40;;;;;;;1.92;1.40;;;5.20;99.90;;;;;;5032913;28;20042;-68
2023/01/27 11:59:09;;;;;;;1.83;1.33;;;;;;;;;;5032787;28;20517;-69
2023/01/27 12:01:45;;;;;;;3.25;1.45;;;;;;;;;;5032720;28;20037;-68
2023/01/27 12:04:24;;;;;;;3.15;1.50;;;5.20;99.90;;;;;;5030744;28;20049;-71
2023/01/27 12:06:56;;;;;;;2.58;1.65;;;;;;;;;;5031958;28;20097;-68
2023/01/27 12:09:34;;;;;;;3.13;2.25;;;;;;;;;;5032359;28;20136;-68
2023/01/27 12:12:27;;;;;;;2.72;1.70;;;5.50;99.90;;;;;;5032441;28;20112;-68
2023/01/27 12:14:55;;;;;;;2.70;1.83;;;5.10;99.90;;;;;;5025754;28;20413;-68
2023/01/27 12:17:34;;;;;;;3.60;1.75;;;;;;;;;;5018930;28;20048;-78
2023/01/27 12:20:22;;;;;;;2.97;1.50;;;5.20;99.90;;;;;;5028639;28;20045;-68
2023/01/27 12:22:51;;;;;;;3.10;1.20;;;;;;;;;;5005567;28;20049;-69
2023/01/27 12:25:28;;;;;;;2.20;1.30;;;;;;;;;;5023997;28;20042;-67
2023/01/27 12:27:56;;;;;;;;;;;5.00;99.90;;;;;;5003000;28;20443;-66
2023/01/27 12:30:23;;;;;;;1.83;1.50;;;;;;;;;;5024254;28;19921;-68
2023/01/27 12:32:50;;;;;;;4.50;1.67;;;;;;;;;;5021153;28;20533;-67
2023/01/27 12:35:35;;;;;;;1.70;1.60;;;;;;;;;;5015940;28;20041;-69
2023/01/27 12:38:01;;;;;;;3.22;1.70;;;;;;;;;;5031971;28;20057;-71
2023/01/27 12:40:28;;;;;;;2.80;1.42;;;;;;;;;;5046995;28;20175;-68
2023/01/27 12:43:11;;;;;;;4.00;1.60;;;;;;;;;;5031493;28;20050;-69
2023/01/27 12:45:37;;;;;;;1.60;1.50;;;;;;;;;;5031711;28;20053;-68
2023/01/27 12:48:12;;;;;;;4.85;1.80;;;;;;;;;;5031162;28;20073;-66
2023/01/27 12:50:56;;;;;;;2.28;2.08;;;;;;;;;;5031509;28;20050;-66
2023/01/27 12:53:22;;;;;;;1.65;1.55;;;;;;;;;;5032248;28;20087;-66
2023/01/27 12:55:48;;;;;;;2.42;1.70;;;;;;;;;;5031947;28;20110;-68
2023/01/27 12:58:44;;;;;;;2.10;1.65;;;;;;;;;;5031780;28;20128;-68
2023/01/27 13:01:26;;;;;;;3.28;2.85;;;;;;;;;;5014369;28;20137;-67
2023/01/27 13:04:11;;;;;;;5.40;1.40;;;;;;;;;;5031154;28;20045;-68
2023/01/27 13:06:42;;;;;;;3.65;1.10;;;;;;;;;;5030746;28;20402;-67
2023/01/27 13:09:29;;;;;;;3.30;1.33;;;;;;;;;;5031406;28;20061;-71
2023/01/27 13:11:57;;;;;;;0.77;0.77;;;;;;;;;;5031075;28;20357;-68
2023/01/27 13:14:27;;;;;;;1.45;1.00;;;;;;;;;;5031640;28;20497;-70
2023/01/27 13:16:54;;;;;;;0.80;0.80;;;;;;;;;;5031731;28;20074;-68
2023/01/27 13:19:21;;;;;;;0.90;0.90;;;;;;;;;;5025397;28;20519;-68
2023/01/27 13:21:51;;;;;;;1.98;0.90;;;4.90;99.90;;;;;;5029863;28;20120;-77
2023/01/27 13:24:26;;;;;;;0.77;0.70;;;;;;;;;;5031112;28;20045;-68
2023/01/27 13:26:54;;;;;;;2.60;0.88;;;;;;;;;;5031245;28;20060;-69
2023/01/27 13:29:23;;;;;;;1.58;1.10;;;;;;;;;;5031069;28;20504;-68
2023/01/27 13:31:53;;;;;;;6.22;1.08;;;;;;;;;;5033858;28;20048;-68
2023/01/27 13:34:38;;;;;;;2.63;0.90;;;;;;;;;;5034680;28;20124;-68
2023/01/27 13:37:04;;;;;;;1.80;0.70;;;;;;;;;;5034674;28;20076;-70
2023/01/27 13:39:54;;;;;;;0.80;0.80;;;5.10;99.90;;;;;;5034355;28;20401;-68
2023/01/27 13:42:20;;;;;;;0.80;0.70;;;;;;;;;;5034677;28;20490;-68
2023/01/27 13:44:55;;;;;;;0.77;0.70;;;;;;;;;;5033194;28;20497;-68
2023/01/27 13:47:28;;;;;;;1.10;0.75;;;4.80;99.90;;;;;;5029920;28;20052;-68
2023/01/27 13:49:57;;;;;;;1.20;0.63;;;;;;;;;;5034420;28;20511;-69
2023/01/27 13:52:24;;;;;;;1.58;0.77;;;;;;;;;;5034393;28;20049;-70
2023/01/27 13:54:50;;;;;;;0.55;0.55;;;;;;;;;;5034533;28;20111;-72
2023/01/27 13:57:38;;;;;;;2.15;0.80;;;;;;;;;;5034392;28;20049;-68
2023/01/27 14:00:10;;;;;;;0.50;0.50;;;;;;;;;;5033571;28;20053;-69
2023/01/27 14:02:55;;;;;;;0.60;0.60;;;;;;;;;;5034932;28;20060;-68
2023/01/27 14:05:39;;;;;;;0.70;0.70;;;;;;;;;;5034935;28;20053;-69
2023/01/27 14:08:13;;;;;;;1.00;0.70;;;;;;;;;;5034858;28;20563;-69
2023/01/27 14:11:05;;;;;;;0.50;0.50;;;;;;;;;;5033716;28;20058;-68
2023/01/27 14:13:31;;;;;;;0.50;0.50;;;;;;;;;;5011593;28;20076;-68
2023/01/27 14:16:00;;;;;;;2.25;0.60;;;;;;;;;;5034776;28;20405;-69
2023/01/27 14:18:30;;;;;;;2.80;0.70;;;;;;;;;;5034637;28;20065;-68
2023/01/27 14:21:03;;;;;;;0.63;0.63;;;;;;;;;;5034679;28;20106;-69
2023/01/27 14:23:43;;;;;;;0.60;0.60;;;4.60;99.90;;;;;;5034662;28;20056;-68
2023/01/27 14:26:14;;;;;;;0.60;0.60;;;;;;;;;;5034504;28;20053;-68
2023/01/27 14:29:01;;;;;;;0.80;0.80;;;4.60;99.90;;;;;;5034611;28;20045;-68
2023/01/27 14:31:47;;;;;;;;;;;4.50;99.90;;;;;;5034835;28;20049;-70
2023/01/27 14:34:16;;;;;;;0.90;0.82;;;;;;;;;;5033994;28;19976;-67
2023/01/27 14:36:44;;;;;;;0.55;0.55;;;;;;;;;;5034323;28;20045;-68
2023/01/27 14:39:16;;;;;;;1.08;0.57;;;;;;;;;;5034243;28;20045;-68
2023/01/27 14:41:48;;;;;;;1.73;0.80;;;;;;;;;;5033469;28;20045;-70
2023/01/27 14:44:39;;;;;;;0.63;0.60;;;4.70;99.90;;;;;;5033868;28;20102;-73
2023/01/27 14:47:37;;;;;;;1.20;0.80;;;4.20;99.90;;;;;;5034265;28;20085;-68
2023/01/27 14:50:12;;;;;;;0.88;0.88;;;;;;;;;;5049809;28;20508;-70
2023/01/27 14:53:10;;;;;;;1.45;0.70;;;4.60;99.90;;;;;;5034078;28;20405;-68
2023/01/27 14:55:39;;;;;;;1.63;0.88;;;;;;;;;;5012888;28;20053;-68
2023/01/27 14:58:23;;;;;;;1.27;0.90;;;;;;;;;;5033997;28;20050;-67
2023/01/27 15:00:49;;;;;;;2.25;0.90;;;;;;;;;;5033739;28;20526;-68
2023/01/27 15:03:24;;;;;;;4.65;0.90;;;;;;;;;;5034036;28;20053;-68
2023/01/27 15:05:53;;;;;;;5.15;1.10;;;;;;;;;;5033915;28;20469;-68
2023/01/27 15:08:23;;;;;;;0.80;0.80;;;;;;;;;;5033405;28;20417;-68
2023/01/27 15:11:30;;;;;;;2.97;0.88;;;4.40;99.90;;;;;;5033711;28;20404;-70
2023/01/27 15:14:06;;;;;;;2.58;0.88;;;;;;;;;;5016654;28;20049;-69
2023/01/27 15:16:51;;;;;;;3.15;1.40;;;4.20;99.90;;;;;;5032631;28;20053;-68
2023/01/27 15:19:34;;;;;;;1.58;1.30;;;;;;;;;;5033709;28;20049;-66
2023/01/27 15:22:12;;;;;;;2.40;1.20;;;;;;;;;;5033528;28;20060;-66